Aviation Digital Data Service (ADDS)

Output produced by METARs form (2119 UTC 02 May 2016)
found at http://aviationweather.gov/adds/metars/
 
KAEX 022053Z 34004KT 10SM BKN011 22/19 A2994 RMK AO2 SLP142 60029 T02220189 58021